createdAt,value
2023-05-14T00:02:11.209Z,99322.27
2023-05-14T00:05:23.434Z,99325.25
2023-05-14T00:08:35.984Z,99325.73
2023-05-14T00:11:48.199Z,99324.53
2023-05-14T00:15:00.366Z,99325.86
2023-05-14T00:18:12.772Z,99322.83
2023-05-14T00:21:25.086Z,99323.91
2023-05-14T00:24:37.260Z,99323.30
2023-05-14T00:27:49.374Z,99324.28
2023-05-14T00:31:01.648Z,99330.26
2023-05-14T00:34:13.921Z,99328.08
2023-05-14T00:37:25.997Z,99326.80
2023-05-14T00:40:38.368Z,99326.28
2023-05-14T00:43:50.384Z,99323.47
2023-05-14T00:47:02.606Z,99324.88
2023-05-14T00:50:17.329Z,99326.80
2023-05-14T00:53:29.979Z,99333.33
2023-05-14T00:56:42.771Z,99338.63
2023-05-14T00:59:55.100Z,99337.16
2023-05-14T01:03:08.074Z,99339.69
2023-05-14T01:06:26.082Z,99335.73
2023-05-14T01:09:46.780Z,99341.59
2023-05-14T01:13:07.059Z,99333.05
2023-05-14T01:16:23.740Z,99330.45
2023-05-14T01:19:42.449Z,99328.25
2023-05-14T01:22:54.599Z,99340.95
2023-05-14T01:26:06.928Z,99327.56
2023-05-14T01:29:26.375Z,99337.94
2023-05-14T01:32:39.906Z,99340.30
2023-05-14T01:35:53.946Z,99338.09
2023-05-14T01:39:09.502Z,99335.61
2023-05-14T01:42:22.116Z,99344.09
2023-05-14T01:45:34.664Z,99344.39
2023-05-14T01:48:46.831Z,99340.22
2023-05-14T01:51:58.983Z,99332.20
2023-05-14T01:55:13.408Z,99330.03
2023-05-14T01:58:25.807Z,99332.38
2023-05-14T02:01:38.542Z,99332.93
2023-05-14T02:04:50.879Z,99326.59
2023-05-14T02:08:03.053Z,99325.00
2023-05-14T02:11:15.240Z,99322.48
2023-05-14T02:14:27.344Z,99319.30
2023-05-14T02:17:39.344Z,99320.27
2023-05-14T02:20:52.383Z,99319.42
2023-05-14T02:24:04.730Z,99315.42
2023-05-14T02:27:17.162Z,99314.45
2023-05-14T02:30:30.410Z,99316.45
2023-05-14T02:33:42.672Z,99309.17
2023-05-14T02:36:56.516Z,99314.69
2023-05-14T02:40:09.421Z,99302.42
2023-05-14T02:43:21.597Z,99308.35
2023-05-14T02:46:34.853Z,99306.23
2023-05-14T02:49:47.228Z,99296.21
2023-05-14T02:52:59.303Z,99290.93
2023-05-14T02:56:12.370Z,99283.13
2023-05-14T02:59:24.418Z,99281.54
2023-05-14T03:02:37.292Z,99283.98
2023-05-14T03:05:50.011Z,99283.69
2023-05-14T03:09:01.973Z,99291.36
2023-05-14T03:12:15.709Z,99289.81
2023-05-14T03:15:27.959Z,99276.06
2023-05-14T03:18:40.948Z,99280.84
2023-05-14T03:21:54.553Z,99272.92
2023-05-14T03:25:06.525Z,99280.73
2023-05-14T03:28:18.672Z,99278.20
2023-05-14T03:31:31.749Z,99286.63
2023-05-14T03:34:44.910Z,99288.34
2023-05-14T03:37:59.370Z,99291.36
2023-05-14T03:41:12.024Z,99286.80
2023-05-14T03:44:24.247Z,99286.48
2023-05-14T03:47:36.222Z,99299.14
2023-05-14T03:50:48.480Z,99294.35
2023-05-14T03:54:00.611Z,99285.69
2023-05-14T03:57:13.303Z,99280.81
2023-05-14T04:00:27.312Z,99280.70
2023-05-14T04:03:40.214Z,99279.03
2023-05-14T04:06:53.305Z,99276.38
2023-05-14T04:10:06.551Z,99274.77
2023-05-14T04:13:20.493Z,99268.83
2023-05-14T04:16:32.705Z,99262.04
2023-05-14T04:19:45.000Z,99261.55
2023-05-14T04:22:57.163Z,99263.02
2023-05-14T04:26:09.581Z,99270.30
2023-05-14T04:29:21.675Z,99265.20
2023-05-14T04:32:33.828Z,99270.53
2023-05-14T04:35:46.233Z,99272.77
2023-05-14T04:38:58.343Z,99275.68
2023-05-14T04:42:11.502Z,99272.82
2023-05-14T04:45:24.098Z,99272.84
2023-05-14T04:48:36.198Z,99281.69
2023-05-14T04:51:48.350Z,99280.41
2023-05-14T04:55:00.632Z,99277.17
2023-05-14T04:58:12.798Z,99272.23
2023-05-14T05:01:24.954Z,99270.09
2023-05-14T05:04:37.299Z,99271.06
2023-05-14T05:07:49.344Z,99262.90
2023-05-14T05:11:01.484Z,99271.09
2023-05-14T05:14:13.572Z,99261.46
2023-05-14T05:17:25.818Z,99262.16
2023-05-14T05:20:37.933Z,99263.61
2023-05-14T05:23:50.066Z,99255.14
2023-05-14T05:27:02.043Z,99253.43
2023-05-14T05:30:17.470Z,99246.78
2023-05-14T05:33:29.897Z,99241.48
2023-05-14T05:36:42.067Z,99239.19
2023-05-14T05:39:54.218Z,99232.58
2023-05-14T05:43:06.298Z,99227.16
2023-05-14T05:46:18.461Z,99224.47
2023-05-14T05:52:31.055Z,99219.33
2023-05-14T05:55:43.370Z,99215.85
2023-05-14T05:58:55.472Z,99228.66
2023-05-14T06:02:07.633Z,99220.70
2023-05-14T06:05:20.076Z,99220.23
2023-05-14T06:08:32.164Z,99213.08
2023-05-14T06:11:44.291Z,99217.50
2023-05-14T06:14:58.013Z,99209.73
2023-05-14T06:18:10.439Z,99209.63
2023-05-14T06:21:23.119Z,99211.72
2023-05-14T06:24:35.267Z,99207.48
2023-05-14T06:27:47.356Z,99205.83
2023-05-14T06:30:59.578Z,99191.50
2023-05-14T06:34:11.713Z,99193.41
2023-05-14T06:37:23.837Z,99179.23
2023-05-14T06:40:36.398Z,99190.97
2023-05-14T06:43:48.684Z,99175.55
2023-05-14T06:47:00.945Z,99169.73
2023-05-14T06:50:15.445Z,99162.16
2023-05-14T06:53:27.716Z,99159.77
2023-05-14T06:56:40.282Z,99157.75
2023-05-14T06:59:52.354Z,99156.86
2023-05-14T07:03:05.289Z,99149.63
2023-05-14T07:06:17.481Z,99156.05
2023-05-14T07:09:29.561Z,99152.13
2023-05-14T07:12:41.759Z,99150.41
2023-05-14T07:15:55.981Z,99155.13
2023-05-14T07:19:08.117Z,99147.66
2023-05-14T07:22:20.237Z,99148.80
2023-05-14T07:25:33.177Z,99155.11
2023-05-14T07:28:45.356Z,99163.08
2023-05-14T07:31:57.516Z,99167.88
2023-05-14T07:35:12.023Z,99166.88
2023-05-14T07:38:25.166Z,99160.27
2023-05-14T07:41:37.137Z,99149.73
2023-05-14T07:44:49.193Z,99145.16
2023-05-14T07:48:01.513Z,99137.59
2023-05-14T07:51:14.168Z,99123.90
2023-05-14T07:54:26.526Z,99121.42
2023-05-14T07:57:39.363Z,99110.14
2023-05-14T08:00:51.405Z,99106.75
2023-05-14T08:04:03.623Z,99105.13
2023-05-14T08:07:16.361Z,99096.87
2023-05-14T08:10:29.185Z,99091.67
2023-05-14T08:13:41.775Z,99087.75
2023-05-14T08:16:53.866Z,99075.49
2023-05-14T08:20:06.870Z,99072.85
2023-05-14T08:23:19.177Z,99074.28
2023-05-14T08:26:31.593Z,99077.63
2023-05-14T08:29:43.751Z,99066.39
2023-05-14T08:32:55.763Z,99061.97
2023-05-14T08:36:08.100Z,99075.49
2023-05-14T08:39:20.131Z,99072.52
2023-05-14T08:42:33.073Z,99066.12
2023-05-14T08:45:47.457Z,99066.81
2023-05-14T08:49:05.184Z,99057.64
2023-05-14T08:52:18.639Z,99065.89
2023-05-14T08:55:33.647Z,99051.36
2023-05-14T08:58:46.042Z,99048.80
2023-05-14T09:02:03.429Z,99037.94
2023-05-14T09:05:17.065Z,99046.03
2023-05-14T09:08:29.771Z,99030.89
2023-05-14T09:11:46.613Z,99009.80
2023-05-14T09:14:58.861Z,99019.07
2023-05-14T09:18:13.167Z,99019.30
2023-05-14T09:21:26.384Z,99007.94
2023-05-14T09:24:39.059Z,99004.73
2023-05-14T09:27:56.687Z,99006.70
2023-05-14T09:31:10.018Z,99009.34
2023-05-14T09:34:32.365Z,99000.59
2023-05-14T09:37:47.922Z,98987.44
2023-05-14T09:41:00.298Z,98983.11
2023-05-14T09:44:12.866Z,98984.53
2023-05-14T09:47:25.780Z,98995.75
2023-05-14T09:50:38.583Z,98984.19
2023-05-14T09:53:52.474Z,98989.94
2023-05-14T09:57:04.611Z,98989.33
2023-05-14T10:00:21.279Z,98984.16
2023-05-14T10:03:36.383Z,98978.65
2023-05-14T10:06:50.340Z,98978.05
2023-05-14T10:10:08.036Z,98971.85
2023-05-14T10:13:24.615Z,98964.52
2023-05-14T10:16:38.226Z,98963.48
2023-05-14T10:19:52.645Z,98950.16
2023-05-14T10:23:07.718Z,98948.50
2023-05-14T10:26:21.780Z,98940.55
2023-05-14T10:29:42.554Z,98937.75
2023-05-14T10:32:54.903Z,98928.31
2023-05-14T10:36:10.246Z,98916.31
2023-05-14T10:39:22.585Z,98917.14
2023-05-14T10:42:41.071Z,98895.86
2023-05-14T10:45:53.729Z,98904.51
2023-05-14T10:49:06.265Z,98893.22
2023-05-14T10:52:20.623Z,98889.30
2023-05-14T10:55:34.863Z,98889.83
2023-05-14T10:58:49.525Z,98876.52
2023-05-14T11:02:03.265Z,98879.56
2023-05-14T11:05:18.742Z,98873.77
2023-05-14T11:08:33.557Z,98867.42
2023-05-14T11:11:47.968Z,98851.80
2023-05-14T11:15:00.467Z,98855.55
2023-05-14T11:18:13.347Z,98860.05
2023-05-14T11:21:27.336Z,98854.15
2023-05-14T11:24:40.914Z,98853.38
2023-05-14T11:27:59.251Z,98858.58
2023-05-14T11:31:11.993Z,98858.34
2023-05-14T11:34:24.989Z,98852.22
2023-05-14T11:37:39.429Z,98855.55
2023-05-14T11:40:59.505Z,98856.25
2023-05-14T11:44:12.178Z,98849.84
2023-05-14T11:47:28.032Z,98844.16
2023-05-14T11:50:43.353Z,98834.34
2023-05-14T11:53:55.544Z,98834.05
2023-05-14T11:57:14.054Z,98833.52
2023-05-14T12:00:27.334Z,98831.75
2023-05-14T12:03:41.313Z,98827.72
2023-05-14T12:06:53.878Z,98807.61
2023-05-14T12:10:10.925Z,98807.52
2023-05-14T12:13:24.759Z,98800.49
2023-05-14T12:16:39.421Z,98793.66
2023-05-14T12:19:54.084Z,98783.16
2023-05-14T12:23:08.522Z,98780.77
2023-05-14T12:26:21.495Z,98779.09
2023-05-14T12:29:34.385Z,98777.11
2023-05-14T12:32:46.614Z,98771.60
2023-05-14T12:36:10.008Z,98761.67
2023-05-14T12:39:16.613Z,98760.03
2023-05-14T12:42:29.094Z,98760.41
2023-05-14T12:45:41.243Z,98758.39
2023-05-14T12:48:53.634Z,98755.88
2023-05-14T12:52:22.689Z,98745.47
2023-05-14T12:55:19.946Z,98748.79
2023-05-14T12:58:32.229Z,98742.99
2023-05-14T13:01:45.144Z,98743.44
2023-05-14T13:04:57.284Z,98744.50
2023-05-14T13:08:09.543Z,98749.66
2023-05-14T13:11:21.975Z,98755.42
2023-05-14T13:14:34.590Z,98746.41
2023-05-14T13:17:47.026Z,98730.11
2023-05-14T13:21:00.036Z,98722.89
2023-05-14T13:24:13.008Z,98725.77
2023-05-14T13:27:25.385Z,98724.54
2023-05-14T13:30:37.709Z,98722.96
2023-05-14T13:33:51.014Z,98718.98
2023-05-14T13:37:04.171Z,98722.75
2023-05-14T13:40:18.802Z,98731.53
2023-05-14T13:43:31.201Z,98719.30
2023-05-14T13:46:43.833Z,98716.97
2023-05-14T13:49:56.661Z,98706.16
2023-05-14T13:53:08.995Z,98698.23
2023-05-14T13:56:21.691Z,98694.60
2023-05-14T13:59:34.084Z,98688.44
2023-05-14T14:02:46.146Z,98680.39
2023-05-14T14:05:58.504Z,98670.63
2023-05-14T14:09:10.913Z,98670.23
2023-05-14T14:12:23.891Z,98665.22
2023-05-14T14:15:36.161Z,98661.11
2023-05-14T14:18:48.928Z,98660.48
2023-05-14T14:22:01.154Z,98652.99
2023-05-14T14:25:15.544Z,98650.95
2023-05-14T14:28:27.852Z,98651.17
2023-05-14T14:31:40.821Z,98640.38
2023-05-14T14:34:53.188Z,98649.10
2023-05-14T14:38:05.432Z,98644.33
2023-05-14T14:41:17.953Z,98640.78
2023-05-14T14:44:30.297Z,98638.92
2023-05-14T14:47:42.592Z,98633.78
2023-05-14T14:50:55.118Z,98628.78
2023-05-14T14:54:07.492Z,98628.78
2023-05-14T14:57:20.035Z,98631.27
2023-05-14T15:00:32.262Z,98614.05
2023-05-14T15:03:45.922Z,98610.11
2023-05-14T15:06:57.898Z,98613.00
2023-05-14T15:10:11.783Z,98601.40
2023-05-14T15:13:24.871Z,98607.02
2023-05-14T15:16:37.308Z,98601.00
2023-05-14T15:19:49.463Z,98594.36
2023-05-14T15:23:02.494Z,98589.80
2023-05-14T15:26:14.849Z,98588.56
2023-05-14T15:29:27.135Z,98598.11
2023-05-14T15:32:39.980Z,98595.01
2023-05-14T15:35:52.788Z,98597.67
2023-05-14T15:39:05.195Z,98596.83
2023-05-14T15:42:17.606Z,98598.49
2023-05-14T15:45:30.271Z,98595.16
2023-05-14T15:48:42.731Z,98587.91
2023-05-14T15:51:55.087Z,98585.22
2023-05-14T15:55:08.392Z,98581.69
2023-05-14T15:58:20.630Z,98584.19
2023-05-14T16:01:32.942Z,98573.83
2023-05-14T16:04:45.690Z,98570.30
2023-05-14T16:07:58.358Z,98569.25
2023-05-14T16:11:11.191Z,98557.22
2023-05-14T16:14:23.615Z,98551.20
2023-05-14T16:17:36.054Z,98534.64
2023-05-14T16:20:48.994Z,98553.30
2023-05-14T16:24:01.548Z,98547.69
2023-05-14T16:27:14.158Z,98555.98
2023-05-14T16:30:26.755Z,98556.59
2023-05-14T16:33:39.253Z,98550.17
2023-05-14T16:36:51.809Z,98552.45
2023-05-14T16:40:04.394Z,98544.97
2023-05-14T16:43:17.007Z,98539.80
2023-05-14T16:46:29.796Z,98538.31
2023-05-14T16:49:42.408Z,98542.00
2023-05-14T16:52:54.954Z,98538.27
2023-05-14T16:56:07.512Z,98541.15
2023-05-14T16:59:20.077Z,98531.61
2023-05-14T17:02:32.322Z,98539.06
2023-05-14T17:05:45.013Z,98526.80
2023-05-14T17:08:57.729Z,98537.80
2023-05-14T17:12:13.103Z,98521.66
2023-05-14T17:15:25.831Z,98511.91
2023-05-14T17:18:38.512Z,98514.39
2023-05-14T17:21:50.932Z,98517.44
2023-05-14T17:25:03.262Z,98508.06
2023-05-14T17:28:15.634Z,98500.38
2023-05-14T17:31:27.945Z,98500.38
2023-05-14T17:34:40.479Z,98498.73
2023-05-14T17:37:53.001Z,98500.17
2023-05-14T17:41:05.722Z,98507.36
2023-05-14T17:44:18.330Z,98499.59
2023-05-14T17:47:30.666Z,98490.83
2023-05-14T17:50:43.885Z,98487.03
2023-05-14T17:53:56.607Z,98482.22
2023-05-14T17:57:09.634Z,98487.54
2023-05-14T18:00:23.770Z,98480.31
2023-05-14T18:03:36.951Z,98484.22
2023-05-14T18:06:50.528Z,98487.91
2023-05-14T18:10:03.235Z,98490.52
2023-05-14T18:13:15.970Z,98493.78
2023-05-14T18:16:28.680Z,98494.76
2023-05-14T18:19:41.197Z,98508.19
2023-05-14T18:22:53.951Z,98526.91
2023-05-14T18:26:07.245Z,98519.92
2023-05-14T18:29:19.712Z,98523.81
2023-05-14T18:32:32.316Z,98529.54
2023-05-14T18:35:45.089Z,98542.05
2023-05-14T18:38:57.501Z,98545.40
2023-05-14T18:42:11.003Z,98545.34
2023-05-14T18:45:24.423Z,98528.60
2023-05-14T18:48:38.525Z,98522.50
2023-05-14T18:51:50.843Z,98532.64
2023-05-14T18:55:03.415Z,98533.38
2023-05-14T18:58:15.897Z,98530.70
2023-05-14T19:01:28.372Z,98529.67
2023-05-14T19:04:51.218Z,98524.78
2023-05-14T19:07:55.395Z,98536.61
2023-05-14T19:11:07.698Z,98529.60
2023-05-14T19:14:20.520Z,98542.88
2023-05-14T19:17:33.457Z,98549.92
2023-05-14T19:20:46.873Z,98548.23
2023-05-14T19:23:59.303Z,98561.64
2023-05-14T19:27:14.073Z,98562.21
2023-05-14T19:30:28.034Z,98569.41
2023-05-14T19:33:40.628Z,98572.47
2023-05-14T19:36:52.878Z,98567.83
2023-05-14T19:40:05.963Z,98568.06
2023-05-14T19:43:18.328Z,98568.06
2023-05-14T19:46:30.714Z,98564.58
2023-05-14T19:49:43.081Z,98563.23
2023-05-14T19:52:56.943Z,98565.19
2023-05-14T19:56:09.644Z,98569.17
2023-05-14T19:59:22.065Z,98565.56
2023-05-14T20:02:34.770Z,98551.09
2023-05-14T20:05:47.301Z,98551.81
2023-05-14T20:08:59.729Z,98543.69
2023-05-14T20:12:15.097Z,98541.09
2023-05-14T20:15:27.749Z,98550.26
2023-05-14T20:18:40.479Z,98528.77
2023-05-14T20:21:53.040Z,98530.84
2023-05-14T20:25:05.257Z,98520.48
2023-05-14T20:28:17.474Z,98514.27
2023-05-14T20:31:29.778Z,98512.95
2023-05-14T20:34:42.302Z,98500.94
2023-05-14T20:37:55.698Z,98492.15
2023-05-14T20:41:08.177Z,98479.64
2023-05-14T20:44:20.659Z,98467.16
2023-05-14T20:47:34.480Z,98456.29
2023-05-14T20:50:51.352Z,98458.48
2023-05-14T20:54:03.623Z,98460.49
2023-05-14T20:57:16.378Z,98453.83
2023-05-14T21:00:29.660Z,98453.35
2023-05-14T21:03:42.175Z,98440.98
2023-05-14T21:06:54.645Z,98432.43
2023-05-14T21:10:07.036Z,98415.13
2023-05-14T21:13:19.355Z,98411.14
2023-05-14T21:16:32.048Z,98387.35
2023-05-14T21:19:44.483Z,98385.31
2023-05-14T21:22:56.698Z,98384.83
2023-05-14T21:26:09.208Z,98383.95
2023-05-14T21:29:21.350Z,98381.47
2023-05-14T21:32:33.461Z,98374.95
2023-05-14T21:35:45.668Z,98371.48
2023-05-14T21:38:58.601Z,98366.98
2023-05-14T21:42:12.529Z,98363.51
2023-05-14T21:45:25.439Z,98353.78
2023-05-14T21:48:38.201Z,98361.31
2023-05-14T21:51:52.886Z,98353.19
2023-05-14T21:55:05.222Z,98351.81
2023-05-14T21:58:17.754Z,98351.30
2023-05-14T22:01:30.203Z,98350.67
2023-05-14T22:04:42.394Z,98361.50
2023-05-14T22:07:55.017Z,98358.56
2023-05-14T22:11:07.636Z,98349.36
2023-05-14T22:14:19.936Z,98343.21
2023-05-14T22:17:34.349Z,98327.05
2023-05-14T22:20:46.997Z,98333.26
2023-05-14T22:23:59.445Z,98316.41
2023-05-14T22:27:12.136Z,98299.08
2023-05-14T22:30:24.436Z,98300.07
2023-05-14T22:33:37.571Z,98309.06
2023-05-14T22:36:49.771Z,98304.72
2023-05-14T22:40:02.366Z,98317.06
2023-05-14T22:43:14.511Z,98322.44
2023-05-14T22:46:26.829Z,98320.45
2023-05-14T22:49:39.309Z,98318.81
2023-05-14T22:52:51.579Z,98311.13
2023-05-14T22:56:03.743Z,98302.86
2023-05-14T22:59:15.868Z,98293.83
2023-05-14T23:02:27.937Z,98297.01
2023-05-14T23:05:40.262Z,98302.02
2023-05-14T23:08:52.482Z,98301.53
2023-05-14T23:12:04.726Z,98297.03
2023-05-14T23:15:18.121Z,98299.22
2023-05-14T23:18:30.922Z,98307.22
2023-05-14T23:21:43.333Z,98302.73
2023-05-14T23:24:55.484Z,98291.59
2023-05-14T23:28:07.694Z,98278.56
2023-05-14T23:31:19.975Z,98266.09
2023-05-14T23:34:32.201Z,98262.73
2023-05-14T23:37:47.612Z,98252.27
2023-05-14T23:40:59.602Z,98247.92
2023-05-14T23:44:12.251Z,98238.11
2023-05-14T23:47:24.536Z,98238.77
2023-05-14T23:50:37.332Z,98234.27
2023-05-14T23:53:49.337Z,98236.48
2023-05-14T23:57:01.749Z,98226.50
